עמוד ראשי
METAR-TAF:

METAR-TAF

שדות תעופה :

Municipal_Airport

Socorro, ניו מקסיקו, ארצות הברית

קו רוחב: 34-01N, קו אורך: 106-54W, גובה: 1478מטר

תצפית מזג אוויר נוכחית

הדו"ח נערך לפני 33דקות, בשעה 04:15 UTC
רוח 5קשר מכיוון דרום
טמפרטורת 25 צלסיוס
לחות 41%
לחץ 1026 hPa
ראות: 16.1קילומטר
שמיים נקיים

METAR: KONM 250415Z AUTO 19005KT 10SM CLR 25/11 A3031 RMK AO2 T02510112

זמן: 22:48 (04:48 UTC)


TAF: חסר

תצפיות ותחזיות מזג אוויר לגבי יותר מ- 4,000 שדות תעופה ברחבי העולם. דוחות METAR ו- TAF.

התחנות הזמינות מסומנות בנקודות צהובות ואדומות על גבי המפה.

העבר את העכבר לנקודה הצבעונית על מנת לראות את שם התחנה.

לאחר מכן, לחץ כדי לראות את תוכן ואת תחזיות מזג האוויר.

כדי לשנות את המפה: לחץ על הכפתורים הירוקים עם הפלוס השחור כדי להתקרב; על הכפתור הירוק עם המקף כדי להתרחק; או בחיצים הירוקים למפות סמוכות.


METAR-TAF: